createdAt,value
2018-06-08T00:00:01.352Z,22.33
2018-06-08T00:02:31.492Z,25.20
2018-06-08T00:05:03.727Z,25.30
2018-06-08T00:07:38.680Z,26.77
2018-06-08T00:10:11.494Z,22.45
2018-06-08T00:12:46.162Z,20.77
2018-06-08T00:15:17.763Z,21.80
2018-06-08T00:17:49.473Z,22.55
2018-06-08T00:20:24.560Z,25.10
2018-06-08T00:22:57.796Z,26.12
2018-06-08T00:25:30.190Z,25.70
2018-06-08T00:28:01.132Z,25.90
2018-06-08T00:30:34.614Z,27.52
2018-06-08T00:33:07.621Z,28.98
2018-06-08T00:35:41.243Z,27.37
2018-06-08T00:38:14.209Z,28.40
2018-06-08T00:40:47.449Z,30.20
2018-06-08T00:43:20.597Z,27.48
2018-06-08T00:45:53.434Z,28.20
2018-06-08T00:48:28.050Z,29.65
2018-06-08T00:50:59.579Z,29.48
2018-06-08T00:53:32.971Z,27.50
2018-06-08T00:56:03.573Z,27.95
2018-06-08T00:58:35.009Z,27.55
2018-06-08T01:01:06.123Z,28.17
2018-06-08T01:03:38.639Z,25.37
2018-06-08T01:06:09.260Z,26.58
2018-06-08T01:08:42.258Z,25.85
2018-06-08T01:11:15.980Z,26.95
2018-06-08T01:13:50.554Z,25.95
2018-06-08T01:16:23.826Z,25.42
2018-06-08T01:18:58.399Z,29.42
2018-06-08T01:21:32.132Z,30.98
2018-06-08T01:24:03.770Z,25.80
2018-06-08T01:26:38.224Z,27.70
2018-06-08T01:29:10.447Z,29.90
2018-06-08T01:31:43.471Z,30.42
2018-06-08T01:34:16.439Z,29.95
2018-06-08T01:36:47.596Z,29.30
2018-06-08T01:39:21.747Z,33.92
2018-06-08T01:41:54.265Z,31.85
2018-06-08T01:44:25.116Z,37.67
2018-06-08T01:46:58.170Z,38.97
2018-06-08T01:49:30.921Z,35.22
2018-06-08T01:52:03.865Z,36.30
2018-06-08T01:54:36.705Z,36.72
2018-06-08T01:57:09.554Z,34.63
2018-06-08T01:59:41.107Z,36.85
2018-06-08T02:02:14.257Z,37.42
2018-06-08T02:04:47.206Z,39.28
2018-06-08T02:07:18.675Z,40.22
2018-06-08T02:09:51.976Z,39.22
2018-06-08T02:12:24.181Z,36.05
2018-06-08T02:14:56.199Z,41.37
2018-06-08T02:17:27.672Z,42.45
2018-06-08T02:20:02.967Z,44.10
2018-06-08T02:22:35.518Z,48.33
2018-06-08T02:25:08.440Z,40.30
2018-06-08T02:27:43.133Z,42.35
2018-06-08T02:30:16.410Z,41.22
2018-06-08T02:32:48.124Z,45.05
2018-06-08T02:35:21.341Z,42.22
2018-06-08T02:37:52.788Z,42.75
2018-06-08T02:40:25.780Z,46.53
2018-06-08T02:42:57.311Z,44.03
2018-06-08T02:45:31.904Z,48.63
2018-06-08T02:48:01.958Z,53.10
2018-06-08T02:50:35.525Z,48.72
2018-06-08T02:53:08.878Z,49.70
2018-06-08T02:55:41.807Z,51.85
2018-06-08T02:58:14.857Z,58.13
2018-06-08T03:00:49.644Z,51.67
2018-06-08T03:03:20.380Z,57.67
2018-06-08T03:05:51.950Z,61.53
2018-06-08T03:08:23.551Z,60.35
2018-06-08T03:10:56.010Z,61.95
2018-06-08T03:13:27.234Z,64.70
2018-06-08T03:15:57.893Z,65.20
2018-06-08T03:18:31.145Z,59.28
2018-06-08T03:21:03.122Z,63.50
2018-06-08T03:23:36.110Z,59.03
2018-06-08T03:26:07.771Z,58.60
2018-06-08T03:28:40.963Z,62.35
2018-06-08T03:31:11.993Z,68.80
2018-06-08T03:33:45.131Z,63.30
2018-06-08T03:36:18.483Z,66.20
2018-06-08T03:38:51.472Z,65.93
2018-06-08T03:41:24.761Z,72.07
2018-06-08T03:43:57.698Z,67.60
2018-06-08T03:46:32.406Z,70.10
2018-06-08T03:49:05.411Z,67.85
2018-06-08T03:51:38.564Z,65.60
2018-06-08T03:54:08.555Z,66.37
2018-06-08T03:56:42.086Z,69.22
2018-06-08T03:59:13.820Z,70.25
2018-06-08T04:01:46.996Z,68.12
2018-06-08T04:04:20.036Z,70.03
2018-06-08T04:06:51.626Z,72.85
2018-06-08T04:09:24.900Z,71.82
2018-06-08T04:11:56.525Z,71.78
2018-06-08T04:14:31.158Z,75.57
2018-06-08T04:17:04.113Z,76.82
2018-06-08T04:19:35.859Z,75.93
2018-06-08T04:22:10.690Z,82.05
2018-06-08T04:24:43.879Z,75.95
2018-06-08T04:27:15.501Z,99.80
2018-06-08T04:29:45.964Z,73.75
2018-06-08T04:32:17.726Z,73.07
2018-06-08T04:34:50.691Z,73.78
2018-06-08T04:37:22.350Z,68.95
2018-06-08T04:39:55.332Z,74.15
2018-06-08T04:42:30.205Z,65.50
2018-06-08T04:45:02.880Z,73.15
2018-06-08T04:47:34.523Z,67.35
2018-06-08T04:50:05.303Z,62.85
2018-06-08T04:52:38.476Z,69.30
2018-06-08T04:55:10.061Z,75.18
2018-06-08T04:57:44.485Z,68.97
2018-06-08T05:00:16.154Z,79.55
2018-06-08T05:02:50.681Z,66.20
2018-06-08T05:05:24.120Z,61.17
2018-06-08T05:07:58.137Z,65.45
2018-06-08T05:10:29.061Z,55.10
2018-06-08T05:13:00.609Z,60.12
2018-06-08T05:15:33.742Z,53.20
2018-06-08T05:18:03.891Z,56.97
2018-06-08T05:20:35.649Z,57.20
2018-06-08T05:23:09.014Z,55.38
2018-06-08T05:25:42.081Z,62.13
2018-06-08T05:28:13.859Z,60.92
2018-06-08T05:30:43.928Z,57.58
2018-06-08T05:33:14.072Z,51.30
2018-06-08T05:35:48.905Z,55.35
2018-06-08T05:38:21.268Z,51.78
2018-06-08T05:40:51.292Z,59.10
2018-06-08T05:43:24.362Z,59.50
2018-06-08T05:45:57.746Z,57.80
2018-06-08T05:48:30.897Z,57.08
2018-06-08T05:51:05.405Z,58.90
2018-06-08T05:53:35.481Z,53.97
2018-06-08T05:56:10.549Z,63.05
2018-06-08T05:58:43.612Z,58.05
2018-06-08T06:01:13.638Z,52.47
2018-06-08T06:03:45.169Z,51.45
2018-06-08T06:06:22.043Z,60.60
2018-06-08T06:08:55.754Z,58.42
2018-06-08T06:11:30.233Z,51.17
2018-06-08T06:14:03.510Z,54.25
2018-06-08T06:16:36.655Z,60.00
2018-06-08T06:19:06.932Z,56.70
2018-06-08T06:21:41.930Z,58.38
2018-06-08T06:24:15.068Z,60.78
2018-06-08T06:26:48.725Z,58.10
2018-06-08T06:29:22.024Z,57.22
2018-06-08T06:31:55.564Z,54.65
2018-06-08T06:34:26.127Z,58.97
2018-06-08T06:36:59.352Z,59.67
2018-06-08T06:39:30.278Z,58.63
2018-06-08T06:42:04.997Z,60.65
2018-06-08T06:44:36.630Z,61.30
2018-06-08T06:47:09.029Z,55.90
2018-06-08T06:49:42.922Z,57.25
2018-06-08T06:52:14.462Z,57.90
2018-06-08T06:54:46.178Z,52.90
2018-06-08T06:57:20.981Z,58.85
2018-06-08T06:59:54.164Z,65.82
2018-06-08T07:02:28.808Z,64.90
2018-06-08T07:05:01.764Z,56.55
2018-06-08T07:07:33.349Z,60.15
2018-06-08T07:10:04.939Z,58.78
2018-06-08T07:12:39.379Z,57.33
2018-06-08T07:15:13.340Z,59.40
2018-06-08T07:17:46.426Z,63.15
2018-06-08T07:20:19.534Z,59.53
2018-06-08T07:22:51.223Z,62.28
2018-06-08T07:25:24.366Z,62.45
2018-06-08T07:27:56.944Z,72.00
2018-06-08T07:30:27.016Z,70.65
2018-06-08T07:33:00.226Z,77.97
2018-06-08T07:35:32.909Z,82.12
2018-06-08T07:38:04.454Z,82.22
2018-06-08T07:40:36.700Z,70.35
2018-06-08T07:43:07.272Z,75.93
2018-06-08T07:45:40.264Z,71.07
2018-06-08T07:48:11.840Z,83.22
2018-06-08T07:50:46.320Z,69.80
2018-06-08T07:53:16.577Z,71.90
2018-06-08T07:55:49.653Z,70.82
2018-06-08T07:58:19.797Z,72.53
2018-06-08T08:00:53.131Z,83.57
2018-06-08T08:03:24.757Z,62.92
2018-06-08T08:05:57.897Z,62.85
2018-06-08T08:08:29.683Z,56.33
2018-06-08T08:11:02.942Z,60.03
2018-06-08T08:13:36.398Z,52.03
2018-06-08T08:16:11.410Z,53.72
2018-06-08T08:18:43.012Z,66.62
2018-06-08T08:21:14.697Z,65.37
2018-06-08T08:23:47.789Z,65.60
2018-06-08T08:26:22.422Z,72.87
2018-06-08T08:28:57.029Z,77.72
2018-06-08T08:31:31.814Z,69.90
2018-06-08T08:34:01.762Z,71.82
2018-06-08T08:36:34.735Z,66.75
2018-06-08T08:39:13.109Z,71.87
2018-06-08T08:41:44.558Z,79.00
2018-06-08T08:44:18.955Z,91.68
2018-06-08T08:46:52.139Z,99.93
2018-06-08T08:49:26.766Z,109.93
2018-06-08T08:51:57.014Z,109.87
2018-06-08T08:54:29.060Z,102.32
2018-06-08T08:57:03.582Z,85.03
2018-06-08T08:59:35.984Z,87.10
2018-06-08T09:02:09.094Z,83.95
2018-06-08T09:04:40.616Z,90.47
2018-06-08T09:07:11.019Z,115.95
2018-06-08T09:09:42.414Z,101.62
2018-06-08T09:12:13.940Z,95.95
2018-06-08T09:14:48.382Z,90.85
2018-06-08T09:17:20.023Z,115.10
2018-06-08T09:19:51.530Z,103.28
2018-06-08T09:22:24.626Z,83.57
2018-06-08T09:24:57.719Z,77.50
2018-06-08T09:27:30.836Z,87.53
2018-06-08T09:30:04.749Z,86.45
2018-06-08T09:32:39.287Z,103.05
2018-06-08T09:35:10.923Z,117.45
2018-06-08T09:37:45.244Z,79.43
2018-06-08T09:40:16.852Z,78.62
2018-06-08T09:42:48.323Z,87.90
2018-06-08T09:45:18.376Z,94.45
2018-06-08T09:47:52.818Z,91.87
2018-06-08T09:50:26.265Z,95.82
2018-06-08T09:52:56.152Z,116.05
2018-06-08T09:55:26.244Z,116.12
2018-06-08T09:57:57.730Z,104.22
2018-06-08T10:00:45.307Z,95.95
2018-06-08T10:03:16.869Z,101.87
2018-06-08T10:05:51.200Z,90.55
2018-06-08T10:08:25.926Z,91.72
2018-06-08T10:10:59.225Z,102.18
2018-06-08T10:13:33.380Z,92.30
2018-06-08T10:16:03.829Z,85.82
2018-06-08T10:18:35.365Z,98.90
2018-06-08T10:21:08.709Z,77.70
2018-06-08T10:23:40.189Z,76.45
2018-06-08T10:26:13.092Z,68.97
2018-06-08T10:28:46.126Z,71.68
2018-06-08T10:31:16.253Z,61.75
2018-06-08T10:33:49.078Z,67.07
2018-06-08T10:36:22.164Z,63.55
2018-06-08T10:38:55.243Z,60.85
2018-06-08T10:41:27.083Z,62.33
2018-06-08T10:43:57.679Z,63.70
2018-06-08T10:46:29.443Z,60.10
2018-06-08T10:49:00.889Z,75.82
2018-06-08T10:51:33.784Z,60.60
2018-06-08T10:54:04.109Z,64.55
2018-06-08T10:56:37.534Z,64.35
2018-06-08T10:59:08.989Z,67.82
2018-06-08T11:01:41.938Z,58.58
2018-06-08T11:04:16.433Z,51.53
2018-06-08T11:06:46.566Z,60.85
2018-06-08T11:09:21.369Z,51.42
2018-06-08T11:11:54.953Z,43.08
2018-06-08T11:14:24.888Z,43.17
2018-06-08T11:16:56.270Z,41.85
2018-06-08T11:19:29.289Z,41.92
2018-06-08T11:22:01.107Z,37.30
2018-06-08T11:24:31.534Z,30.30
2018-06-08T11:27:03.216Z,28.20
2018-06-08T11:29:34.431Z,28.15
2018-06-08T11:32:07.701Z,28.38
2018-06-08T11:34:42.234Z,23.95
2018-06-08T11:37:13.695Z,20.92
2018-06-08T11:39:48.270Z,23.23
2018-06-08T11:42:19.926Z,29.23
2018-06-08T11:44:52.781Z,28.17
2018-06-08T11:47:23.108Z,32.78
2018-06-08T11:49:55.992Z,30.27
2018-06-08T11:52:28.948Z,29.85
2018-06-08T11:55:00.362Z,35.45
2018-06-08T11:57:32.250Z,31.15
2018-06-08T12:00:04.259Z,31.42
2018-06-08T12:02:37.302Z,29.48
2018-06-08T12:05:07.383Z,29.73
2018-06-08T12:07:40.280Z,32.22
2018-06-08T12:10:10.199Z,25.65
2018-06-08T12:12:43.601Z,28.75
2018-06-08T12:15:15.094Z,26.37
2018-06-08T12:17:46.636Z,29.87
2018-06-08T12:20:18.044Z,29.50
2018-06-08T12:22:49.782Z,28.67
2018-06-08T12:25:21.154Z,25.60
2018-06-08T12:27:54.301Z,28.80
2018-06-08T12:30:25.825Z,27.10
2018-06-08T12:32:57.373Z,26.65
2018-06-08T12:35:29.185Z,25.55
2018-06-08T12:38:00.648Z,24.85
2018-06-08T12:40:32.042Z,27.50
2018-06-08T12:43:03.542Z,27.10
2018-06-08T12:45:33.459Z,26.48
2018-06-08T12:48:05.532Z,26.25
2018-06-08T12:50:38.398Z,26.17
2018-06-08T12:53:08.978Z,27.40
2018-06-08T12:55:42.167Z,26.37
2018-06-08T12:58:17.020Z,27.85
2018-06-08T13:00:49.981Z,33.35
2018-06-08T13:03:22.818Z,30.90
2018-06-08T13:05:52.734Z,27.98
2018-06-08T13:08:23.696Z,27.77
2018-06-08T13:10:54.077Z,28.85
2018-06-08T13:13:23.946Z,28.60
2018-06-08T13:15:55.457Z,26.62
2018-06-08T13:18:28.478Z,26.75
2018-06-08T13:20:59.762Z,28.95
2018-06-08T13:23:31.353Z,29.85
2018-06-08T13:26:02.733Z,31.83
2018-06-08T13:28:33.722Z,26.37
2018-06-08T13:31:05.738Z,28.35
2018-06-08T13:33:35.833Z,24.95
2018-06-08T13:36:07.560Z,34.15
2018-06-08T13:38:37.506Z,33.08
2018-06-08T13:41:09.178Z,30.35
2018-06-08T13:43:39.049Z,25.92
2018-06-08T13:46:47.381Z,29.17
2018-06-08T13:49:20.267Z,28.12
2018-06-08T13:51:51.793Z,26.33
2018-06-08T13:54:25.422Z,26.98
2018-06-08T13:56:58.734Z,24.48
2018-06-08T13:59:29.084Z,26.95
2018-06-08T14:02:00.437Z,21.42
2018-06-08T14:04:31.932Z,22.42
2018-06-08T14:07:03.056Z,27.60
2018-06-08T14:09:34.970Z,22.33
2018-06-08T14:12:07.993Z,22.02
2018-06-08T14:14:40.924Z,22.50
2018-06-08T14:17:12.341Z,23.23
2018-06-08T14:19:43.690Z,25.05
2018-06-08T14:22:18.014Z,22.05
2018-06-08T14:24:49.548Z,23.33
2018-06-08T14:27:22.356Z,24.33
2018-06-08T14:29:55.560Z,26.80
2018-06-08T14:32:30.005Z,23.35
2018-06-08T14:35:02.876Z,26.00
2018-06-08T14:37:32.786Z,25.17
2018-06-08T14:40:04.310Z,27.67
2018-06-08T14:42:37.634Z,22.55
2018-06-08T14:45:08.577Z,24.40
2018-06-08T14:47:38.532Z,25.48
2018-06-08T14:50:11.793Z,26.95
2018-06-08T14:52:44.663Z,23.15
2018-06-08T14:55:19.572Z,27.48
2018-06-08T14:57:52.416Z,26.83
2018-06-08T15:00:24.429Z,29.90
2018-06-08T15:02:57.267Z,27.80
2018-06-08T15:05:30.305Z,24.80
2018-06-08T15:08:01.816Z,28.20
2018-06-08T15:10:32.317Z,29.58
2018-06-08T15:13:05.386Z,30.08
2018-06-08T15:15:37.031Z,26.80
2018-06-08T15:18:08.571Z,27.45
2018-06-08T15:20:39.849Z,29.52
2018-06-08T15:23:11.456Z,32.35
2018-06-08T15:25:44.260Z,25.58
2018-06-08T15:28:14.689Z,28.62
2018-06-08T15:30:47.687Z,29.33
2018-06-08T15:33:17.623Z,31.83
2018-06-08T15:35:47.722Z,31.80
2018-06-08T15:38:20.689Z,26.27
2018-06-08T15:40:52.181Z,28.35
2018-06-08T15:43:23.528Z,30.67
2018-06-08T15:45:56.575Z,29.75
2018-06-08T15:48:29.442Z,28.75
2018-06-08T15:50:58.913Z,29.60
2018-06-08T15:53:32.096Z,32.92
2018-06-08T15:56:03.491Z,31.37
2018-06-08T15:58:35.086Z,28.67
2018-06-08T16:01:08.022Z,29.15
2018-06-08T16:03:40.017Z,33.08
2018-06-08T16:06:11.421Z,29.52
2018-06-08T16:08:45.645Z,29.73
2018-06-08T16:11:17.057Z,32.80
2018-06-08T16:13:49.909Z,30.20
2018-06-08T16:16:22.891Z,34.10
2018-06-08T16:18:55.964Z,33.47
2018-06-08T16:21:29.094Z,32.03
2018-06-08T16:24:00.586Z,37.17
2018-06-08T16:26:30.556Z,35.28
2018-06-08T16:29:02.027Z,30.55
2018-06-08T16:31:33.501Z,33.25
2018-06-08T16:34:04.926Z,31.70
2018-06-08T16:36:37.988Z,32.65
2018-06-08T16:39:10.716Z,36.55
2018-06-08T16:41:43.942Z,36.33
2018-06-08T16:44:14.452Z,32.45
2018-06-08T16:46:45.017Z,33.33
2018-06-08T16:49:14.668Z,33.05
2018-06-08T16:51:46.147Z,35.75
2018-06-08T16:54:19.130Z,31.25
2018-06-08T16:56:50.674Z,32.97
2018-06-08T16:59:23.794Z,32.30
2018-06-08T17:01:53.794Z,32.25
2018-06-08T17:04:25.190Z,35.58
2018-06-08T17:06:58.229Z,24.05
2018-06-08T17:09:31.191Z,28.85
2018-06-08T17:12:04.328Z,25.58
2018-06-08T17:14:35.997Z,27.05
2018-06-08T17:17:06.634Z,27.67
2018-06-08T17:19:39.000Z,25.73
2018-06-08T17:22:08.177Z,22.58
2018-06-08T17:24:42.667Z,25.65
2018-06-08T17:27:14.115Z,23.20
2018-06-08T17:29:45.521Z,23.80
2018-06-08T17:32:18.467Z,27.70
2018-06-08T17:34:50.087Z,25.83
2018-06-08T17:37:22.862Z,26.42
2018-06-08T17:39:54.596Z,24.87
2018-06-08T17:42:23.717Z,27.58
2018-06-08T17:44:55.136Z,21.08
2018-06-08T17:47:27.276Z,27.77
2018-06-08T17:50:00.082Z,23.15
2018-06-08T17:52:34.594Z,26.42
2018-06-08T17:55:05.066Z,27.95
2018-06-08T17:57:37.494Z,24.73
2018-06-08T18:00:12.264Z,29.60
2018-06-08T18:02:47.039Z,26.20
2018-06-08T18:05:19.059Z,27.95
2018-06-08T18:07:51.943Z,28.20
2018-06-08T18:10:24.324Z,27.08
2018-06-08T18:12:57.189Z,31.25
2018-06-08T18:15:29.381Z,29.52
2018-06-08T18:18:03.797Z,22.77
2018-06-08T18:20:33.723Z,27.23
2018-06-08T18:23:08.112Z,24.15
2018-06-08T18:25:39.454Z,27.13
2018-06-08T18:28:09.319Z,26.05
2018-06-08T18:30:42.995Z,29.92
2018-06-08T18:33:16.071Z,23.87
2018-06-08T18:35:47.425Z,24.60
2018-06-08T18:38:20.583Z,25.25
2018-06-08T18:40:53.341Z,27.02
2018-06-08T18:43:25.356Z,25.98
2018-06-08T18:45:57.561Z,29.60
2018-06-08T18:48:29.158Z,28.42
2018-06-08T18:51:01.428Z,29.30
2018-06-08T18:53:32.098Z,26.77
2018-06-08T18:56:02.236Z,24.40
2018-06-08T18:58:34.672Z,25.62
2018-06-08T19:01:05.941Z,25.98
2018-06-08T19:03:35.915Z,23.40
2018-06-08T19:06:08.788Z,33.65
2018-06-08T19:08:40.218Z,26.42
2018-06-08T19:11:10.777Z,27.62
2018-06-08T19:13:42.193Z,25.20
2018-06-08T19:16:14.707Z,24.60
2018-06-08T19:18:47.796Z,24.75
2018-06-08T19:21:19.431Z,26.80
2018-06-08T19:23:52.361Z,25.12
2018-06-08T19:26:25.231Z,27.08
2018-06-08T19:28:55.146Z,24.80
2018-06-08T19:31:29.832Z,24.63
2018-06-08T19:34:04.215Z,24.23
2018-06-08T19:36:37.358Z,26.67
2018-06-08T19:39:13.386Z,20.15
2018-06-08T19:41:46.359Z,28.90
2018-06-08T19:44:19.129Z,24.02
2018-06-08T19:46:49.108Z,22.08
2018-06-08T19:49:23.685Z,26.33
2018-06-08T19:51:53.633Z,26.87
2018-06-08T19:54:25.444Z,24.12
2018-06-08T19:56:56.994Z,24.87
2018-06-08T19:59:26.986Z,29.20
2018-06-08T20:01:57.109Z,29.45
2018-06-08T20:04:29.556Z,28.40
2018-06-08T20:06:59.551Z,26.30
2018-06-08T20:09:32.420Z,30.37
2018-06-08T20:12:06.895Z,26.27
2018-06-08T20:14:39.801Z,28.95
2018-06-08T20:17:11.369Z,29.52
2018-06-08T20:19:42.952Z,27.23
2018-06-08T20:22:17.327Z,28.05
2018-06-08T20:24:50.364Z,27.13
2018-06-08T20:27:21.846Z,31.75
2018-06-08T20:29:54.738Z,28.50
2018-06-08T20:32:27.950Z,29.02
2018-06-08T20:35:02.670Z,27.83
2018-06-08T20:37:34.663Z,32.40
2018-06-08T20:40:04.625Z,30.33
2018-06-08T20:42:35.318Z,31.02
2018-06-08T20:45:07.206Z,30.88
2018-06-08T20:47:41.588Z,27.87
2018-06-08T20:50:13.123Z,31.37
2018-06-08T20:52:44.788Z,31.75
2018-06-08T20:55:18.314Z,32.83
2018-06-08T20:58:08.671Z,33.30
2018-06-08T21:00:41.559Z,31.48
2018-06-08T21:03:13.297Z,35.63
2018-06-08T21:05:44.723Z,34.30
2018-06-08T21:08:16.491Z,37.58
2018-06-08T21:10:47.956Z,34.42
2018-06-08T21:13:21.078Z,35.30
2018-06-08T21:15:52.318Z,34.63
2018-06-08T21:18:23.546Z,36.28
2018-06-08T21:20:56.490Z,38.30
2018-06-08T21:23:26.426Z,35.97
2018-06-08T21:25:58.005Z,36.03
2018-06-08T21:28:31.050Z,41.10
2018-06-08T21:31:05.523Z,33.45
2018-06-08T21:33:37.120Z,32.30
2018-06-08T21:36:10.095Z,33.65
2018-06-08T21:38:44.729Z,34.60
2018-06-08T21:41:16.210Z,35.03
2018-06-08T21:43:49.263Z,31.55
2018-06-08T21:46:24.028Z,37.58
2018-06-08T21:48:57.176Z,38.38
2018-06-08T21:51:27.134Z,35.60
2018-06-08T21:53:57.068Z,32.08
2018-06-08T21:56:28.547Z,35.25
2018-06-08T21:59:02.851Z,32.45
2018-06-08T22:01:35.760Z,33.28
2018-06-08T22:04:07.588Z,30.80
2018-06-08T22:06:40.575Z,33.15
2018-06-08T22:09:18.404Z,39.03
2018-06-08T22:11:49.927Z,39.83
2018-06-08T22:14:22.883Z,33.33
2018-06-08T22:16:57.771Z,32.10
2018-06-08T22:19:27.752Z,29.52
2018-06-08T22:22:01.555Z,35.83
2018-06-08T22:24:33.069Z,33.03
2018-06-08T22:27:05.211Z,34.88
2018-06-08T22:29:36.794Z,36.08
2018-06-08T22:32:08.606Z,37.00
2018-06-08T22:34:40.385Z,31.60
2018-06-08T22:37:12.458Z,35.78
2018-06-08T22:39:47.465Z,31.05
2018-06-08T22:42:20.405Z,32.63
2018-06-08T22:44:55.151Z,36.30
2018-06-08T22:47:26.918Z,30.52
2018-06-08T22:49:59.868Z,35.88
2018-06-08T22:52:31.627Z,33.95
2018-06-08T22:55:01.695Z,31.42
2018-06-08T22:57:36.036Z,33.22
2018-06-08T23:00:08.109Z,31.60
2018-06-08T23:02:41.221Z,32.75
2018-06-08T23:05:10.708Z,33.75
2018-06-08T23:07:45.214Z,32.05
2018-06-08T23:10:18.248Z,33.42
2018-06-08T23:12:53.346Z,30.23
2018-06-08T23:15:24.995Z,37.17
2018-06-08T23:17:58.186Z,33.85
2018-06-08T23:20:29.543Z,33.80
2018-06-08T23:23:00.007Z,31.65
2018-06-08T23:25:33.488Z,32.55
2018-06-08T23:28:05.365Z,34.47
2018-06-08T23:30:35.059Z,28.87
2018-06-08T23:33:09.707Z,32.63
2018-06-08T23:35:44.369Z,29.70
2018-06-08T23:38:17.796Z,33.22
2018-06-08T23:40:50.927Z,37.45
2018-06-08T23:43:24.394Z,29.90
2018-06-08T23:45:57.485Z,33.13
2018-06-08T23:48:27.416Z,31.40
2018-06-08T23:51:00.756Z,36.72
2018-06-08T23:53:30.844Z,31.33
2018-06-08T23:56:05.287Z,34.47
2018-06-08T23:58:38.270Z,30.73
